sensor_id;sensor_type;location;lat;lon;timestamp;P1;P2;P0
84339;PMS7003;74521;45.618;5.212;2024-02-23T00:01:50;0.00;0.00;0.00
84339;PMS7003;74521;45.618;5.212;2024-02-23T00:04:18;1.00;0.00;0.00
84339;PMS7003;74521;45.618;5.212;2024-02-23T00:06:45;0.00;0.00;0.00
84339;PMS7003;74521;45.618;5.212;2024-02-23T00:09:12;1.00;0.00;0.00
84339;PMS7003;74521;45.618;5.212;2024-02-23T00:11:39;2.00;0.00;0.00
84339;PMS7003;74521;45.618;5.212;2024-02-23T00:14:09;1.00;0.00;0.00
84339;PMS7003;74521;45.618;5.212;2024-02-23T00:16:37;0.50;0.00;0.00
84339;PMS7003;74521;45.618;5.212;2024-02-23T00:19:04;0.00;0.00;0.00
84339;PMS7003;74521;45.618;5.212;2024-02-23T00:21:32;0.75;0.00;0.00
84339;PMS7003;74521;45.618;5.212;2024-02-23T00:23:59;0.00;0.00;0.00
84339;PMS7003;74521;45.618;5.212;2024-02-23T00:26:26;0.00;0.00;0.00
84339;PMS7003;74521;45.618;5.212;2024-02-23T00:28:53;0.00;0.00;0.00
84339;PMS7003;74521;45.618;5.212;2024-02-23T00:31:19;0.00;0.00;0.00
84339;PMS7003;74521;45.618;5.212;2024-02-23T00:33:46;0.00;0.00;0.00
84339;PMS7003;74521;45.618;5.212;2024-02-23T00:36:12;0.00;0.00;0.00
84339;PMS7003;74521;45.618;5.212;2024-02-23T00:38:41;0.00;0.00;0.00
84339;PMS7003;74521;45.618;5.212;2024-02-23T00:41:08;0.00;0.00;0.00
84339;PMS7003;74521;45.618;5.212;2024-02-23T00:43:37;0.00;0.00;0.00
84339;PMS7003;74521;45.618;5.212;2024-02-23T00:46:04;0.00;0.00;0.00
84339;PMS7003;74521;45.618;5.212;2024-02-23T00:48:31;0.00;0.00;0.00
84339;PMS7003;74521;45.618;5.212;2024-02-23T00:50:57;0.00;0.00;0.00
84339;PMS7003;74521;45.618;5.212;2024-02-23T00:53:24;0.00;0.00;0.00
84339;PMS7003;74521;45.618;5.212;2024-02-23T00:55:52;0.00;0.00;0.00
84339;PMS7003;74521;45.618;5.212;2024-02-23T00:58:19;0.00;0.00;0.00
84339;PMS7003;74521;45.618;5.212;2024-02-23T01:00:46;0.00;0.00;0.00
84339;PMS7003;74521;45.618;5.212;2024-02-23T01:03:12;0.00;0.00;0.00
84339;PMS7003;74521;45.618;5.212;2024-02-23T01:05:39;0.00;0.00;0.00
84339;PMS7003;74521;45.618;5.212;2024-02-23T01:08:07;0.00;0.00;0.00
84339;PMS7003;74521;45.618;5.212;2024-02-23T01:10:34;0.00;0.00;0.00
84339;PMS7003;74521;45.618;5.212;2024-02-23T01:13:02;0.00;0.00;0.00
84339;PMS7003;74521;45.618;5.212;2024-02-23T01:15:30;0.00;0.00;0.00
84339;PMS7003;74521;45.618;5.212;2024-02-23T01:17:56;0.00;0.00;0.00
84339;PMS7003;74521;45.618;5.212;2024-02-23T01:20:23;0.50;0.00;0.00
84339;PMS7003;74521;45.618;5.212;2024-02-23T01:22:50;0.00;0.00;0.00
84339;PMS7003;74521;45.618;5.212;2024-02-23T01:25:16;0.00;0.00;0.00
84339;PMS7003;74521;45.618;5.212;2024-02-23T01:27:43;0.00;0.00;0.00
84339;PMS7003;74521;45.618;5.212;2024-02-23T01:30:12;0.00;0.00;0.00
84339;PMS7003;74521;45.618;5.212;2024-02-23T01:32:38;0.00;0.00;0.00
84339;PMS7003;74521;45.618;5.212;2024-02-23T01:35:06;0.00;0.00;0.00
84339;PMS7003;74521;45.618;5.212;2024-02-23T01:37:34;0.00;0.00;0.00
84339;PMS7003;74521;45.618;5.212;2024-02-23T01:40:00;0.00;0.00;0.00
84339;PMS7003;74521;45.618;5.212;2024-02-23T01:42:27;0.00;0.00;0.00
84339;PMS7003;74521;45.618;5.212;2024-02-23T01:44:54;0.00;0.00;0.00
84339;PMS7003;74521;45.618;5.212;2024-02-23T01:47:23;0.00;0.00;0.00
84339;PMS7003;74521;45.618;5.212;2024-02-23T01:49:49;0.00;0.00;0.00
84339;PMS7003;74521;45.618;5.212;2024-02-23T01:52:17;0.00;0.00;0.00
84339;PMS7003;74521;45.618;5.212;2024-02-23T01:54:44;0.00;0.00;0.00
84339;PMS7003;74521;45.618;5.212;2024-02-23T01:57:11;1.00;0.00;0.00
84339;PMS7003;74521;45.618;5.212;2024-02-23T01:59:38;0.00;0.00;0.00
84339;PMS7003;74521;45.618;5.212;2024-02-23T02:02:06;0.00;0.00;0.00
84339;PMS7003;74521;45.618;5.212;2024-02-23T02:04:34;0.00;0.00;0.00
84339;PMS7003;74521;45.618;5.212;2024-02-23T02:07:01;0.00;0.00;0.00
84339;PMS7003;74521;45.618;5.212;2024-02-23T02:09:28;0.00;0.00;0.00
84339;PMS7003;74521;45.618;5.212;2024-02-23T02:11:54;0.00;0.00;0.00
84339;PMS7003;74521;45.618;5.212;2024-02-23T02:14:21;0.00;0.00;0.00
84339;PMS7003;74521;45.618;5.212;2024-02-23T02:16:47;1.00;0.00;0.00
84339;PMS7003;74521;45.618;5.212;2024-02-23T02:19:14;0.00;0.00;0.00
84339;PMS7003;74521;45.618;5.212;2024-02-23T02:21:42;1.00;0.00;0.00
84339;PMS7003;74521;45.618;5.212;2024-02-23T02:24:09;0.00;0.00;0.00
84339;PMS7003;74521;45.618;5.212;2024-02-23T02:26:35;0.00;0.00;0.00
84339;PMS7003;74521;45.618;5.212;2024-02-23T02:29:03;0.75;0.00;0.00
84339;PMS7003;74521;45.618;5.212;2024-02-23T02:31:30;0.00;0.00;0.00
84339;PMS7003;74521;45.618;5.212;2024-02-23T02:34:02;0.00;0.00;0.00
84339;PMS7003;74521;45.618;5.212;2024-02-23T02:36:29;0.00;0.00;0.00
84339;PMS7003;74521;45.618;5.212;2024-02-23T02:38:57;1.00;0.00;0.00
84339;PMS7003;74521;45.618;5.212;2024-02-23T02:41:23;0.00;0.00;0.00
84339;PMS7003;74521;45.618;5.212;2024-02-23T02:43:54;1.00;0.00;0.00
84339;PMS7003;74521;45.618;5.212;2024-02-23T02:46:21;0.00;0.00;0.00
84339;PMS7003;74521;45.618;5.212;2024-02-23T02:48:47;1.00;0.00;0.00
84339;PMS7003;74521;45.618;5.212;2024-02-23T02:51:14;0.25;0.00;0.00
84339;PMS7003;74521;45.618;5.212;2024-02-23T02:53:41;0.00;0.00;0.00
84339;PMS7003;74521;45.618;5.212;2024-02-23T02:56:09;0.00;0.00;0.00
84339;PMS7003;74521;45.618;5.212;2024-02-23T02:58:35;0.00;0.00;0.00
84339;PMS7003;74521;45.618;5.212;2024-02-23T03:01:02;0.00;0.00;0.00
84339;PMS7003;74521;45.618;5.212;2024-02-23T03:03:29;0.00;0.00;0.00
84339;PMS7003;74521;45.618;5.212;2024-02-23T03:05:55;0.00;0.00;0.00
84339;PMS7003;74521;45.618;5.212;2024-02-23T03:08:21;1.00;0.00;0.00
84339;PMS7003;74521;45.618;5.212;2024-02-23T03:10:48;0.00;0.00;0.00
84339;PMS7003;74521;45.618;5.212;2024-02-23T03:13:16;0.00;0.00;0.00
84339;PMS7003;74521;45.618;5.212;2024-02-23T03:15:42;0.00;0.00;0.00
84339;PMS7003;74521;45.618;5.212;2024-02-23T03:18:09;0.00;0.00;0.00
84339;PMS7003;74521;45.618;5.212;2024-02-23T03:20:36;0.00;0.00;0.00
84339;PMS7003;74521;45.618;5.212;2024-02-23T03:23:03;0.00;0.00;0.00
84339;PMS7003;74521;45.618;5.212;2024-02-23T03:25:29;1.00;0.00;0.00
84339;PMS7003;74521;45.618;5.212;2024-02-23T03:27:56;0.00;0.00;0.00
84339;PMS7003;74521;45.618;5.212;2024-02-23T03:30:24;0.00;0.00;0.00
84339;PMS7003;74521;45.618;5.212;2024-02-23T03:32:51;0.00;0.00;0.00
84339;PMS7003;74521;45.618;5.212;2024-02-23T03:35:18;0.00;0.00;0.00
84339;PMS7003;74521;45.618;5.212;2024-02-23T03:37:44;0.00;0.00;0.00
84339;PMS7003;74521;45.618;5.212;2024-02-23T03:40:11;1.00;0.00;0.00
84339;PMS7003;74521;45.618;5.212;2024-02-23T03:42:38;0.00;0.00;0.00
84339;PMS7003;74521;45.618;5.212;2024-02-23T03:45:05;0.00;0.00;0.00
84339;PMS7003;74521;45.618;5.212;2024-02-23T03:47:33;0.00;0.00;0.00
84339;PMS7003;74521;45.618;5.212;2024-02-23T03:50:00;0.75;0.00;0.00
84339;PMS7003;74521;45.618;5.212;2024-02-23T03:52:26;0.00;0.00;0.00
84339;PMS7003;74521;45.618;5.212;2024-02-23T03:54:53;0.00;0.00;0.00
84339;PMS7003;74521;45.618;5.212;2024-02-23T03:57:20;0.00;0.00;0.00
84339;PMS7003;74521;45.618;5.212;2024-02-23T03:59:53;0.00;0.00;0.00
84339;PMS7003;74521;45.618;5.212;2024-02-23T04:02:20;0.00;0.00;0.00
84339;PMS7003;74521;45.618;5.212;2024-02-23T04:04:48;0.00;0.00;0.00
84339;PMS7003;74521;45.618;5.212;2024-02-23T04:07:15;0.00;0.00;0.00
84339;PMS7003;74521;45.618;5.212;2024-02-23T04:09:42;1.00;0.00;0.00
84339;PMS7003;74521;45.618;5.212;2024-02-23T04:12:08;1.00;0.00;0.00
84339;PMS7003;74521;45.618;5.212;2024-02-23T04:14:35;1.00;0.00;0.00
84339;PMS7003;74521;45.618;5.212;2024-02-23T04:17:02;0.00;0.00;0.00
84339;PMS7003;74521;45.618;5.212;2024-02-23T04:19:29;0.00;0.00;0.00
84339;PMS7003;74521;45.618;5.212;2024-02-23T04:21:57;0.00;0.00;0.00
84339;PMS7003;74521;45.618;5.212;2024-02-23T04:24:23;0.00;0.00;0.00
84339;PMS7003;74521;45.618;5.212;2024-02-23T04:26:50;1.00;0.00;0.00
84339;PMS7003;74521;45.618;5.212;2024-02-23T04:29:16;0.00;0.00;0.00
84339;PMS7003;74521;45.618;5.212;2024-02-23T04:31:42;0.00;0.00;0.00
84339;PMS7003;74521;45.618;5.212;2024-02-23T04:34:09;0.75;0.00;0.00
84339;PMS7003;74521;45.618;5.212;2024-02-23T04:36:35;0.00;0.00;0.00
84339;PMS7003;74521;45.618;5.212;2024-02-23T04:39:04;1.00;0.00;0.00
84339;PMS7003;74521;45.618;5.212;2024-02-23T04:41:30;0.00;0.00;0.00
84339;PMS7003;74521;45.618;5.212;2024-02-23T04:43:57;0.00;0.00;0.00
84339;PMS7003;74521;45.618;5.212;2024-02-23T04:46:25;1.00;0.00;0.00
84339;PMS7003;74521;45.618;5.212;2024-02-23T04:48:51;0.00;0.00;0.00
84339;PMS7003;74521;45.618;5.212;2024-02-23T04:51:18;0.00;0.00;0.00
84339;PMS7003;74521;45.618;5.212;2024-02-23T04:53:47;0.00;0.00;0.00
84339;PMS7003;74521;45.618;5.212;2024-02-23T04:56:15;0.00;0.00;0.00
84339;PMS7003;74521;45.618;5.212;2024-02-23T04:58:42;0.00;0.00;0.00
84339;PMS7003;74521;45.618;5.212;2024-02-23T05:01:09;0.00;0.00;0.00
84339;PMS7003;74521;45.618;5.212;2024-02-23T05:03:36;0.00;0.00;0.00
84339;PMS7003;74521;45.618;5.212;2024-02-23T05:06:03;1.00;0.00;0.00
84339;PMS7003;74521;45.618;5.212;2024-02-23T05:08:30;0.00;0.00;0.00
84339;PMS7003;74521;45.618;5.212;2024-02-23T05:10:57;0.00;0.00;0.00
84339;PMS7003;74521;45.618;5.212;2024-02-23T05:13:25;2.75;0.00;0.00
84339;PMS7003;74521;45.618;5.212;2024-02-23T05:15:54;0.00;0.00;0.00
84339;PMS7003;74521;45.618;5.212;2024-02-23T05:18:22;0.00;0.00;0.00
84339;PMS7003;74521;45.618;5.212;2024-02-23T05:20:48;0.50;0.00;0.00
84339;PMS7003;74521;45.618;5.212;2024-02-23T05:23:15;0.00;0.00;0.00
84339;PMS7003;74521;45.618;5.212;2024-02-23T05:25:41;0.00;0.00;0.00
84339;PMS7003;74521;45.618;5.212;2024-02-23T05:28:08;0.00;0.00;0.00
84339;PMS7003;74521;45.618;5.212;2024-02-23T05:30:36;0.00;0.00;0.00
84339;PMS7003;74521;45.618;5.212;2024-02-23T05:33:03;0.00;0.00;0.00
84339;PMS7003;74521;45.618;5.212;2024-02-23T05:35:30;0.00;0.00;0.00
84339;PMS7003;74521;45.618;5.212;2024-02-23T05:37:56;0.25;0.00;0.00
84339;PMS7003;74521;45.618;5.212;2024-02-23T05:40:23;2.00;0.00;0.00
84339;PMS7003;74521;45.618;5.212;2024-02-23T05:42:50;0.00;0.00;0.00
84339;PMS7003;74521;45.618;5.212;2024-02-23T05:45:17;0.00;0.00;0.00
84339;PMS7003;74521;45.618;5.212;2024-02-23T05:47:45;0.00;0.00;0.00
84339;PMS7003;74521;45.618;5.212;2024-02-23T05:50:12;0.00;0.00;0.00
84339;PMS7003;74521;45.618;5.212;2024-02-23T05:52:38;0.00;0.00;0.00
84339;PMS7003;74521;45.618;5.212;2024-02-23T05:55:05;0.00;0.00;0.00
84339;PMS7003;74521;45.618;5.212;2024-02-23T05:57:32;0.00;0.00;0.00
84339;PMS7003;74521;45.618;5.212;2024-02-23T05:59:59;0.00;0.00;0.00
84339;PMS7003;74521;45.618;5.212;2024-02-23T06:02:26;0.00;0.00;0.00
84339;PMS7003;74521;45.618;5.212;2024-02-23T06:04:54;1.00;0.00;0.00
84339;PMS7003;74521;45.618;5.212;2024-02-23T06:07:20;1.00;0.00;0.00
84339;PMS7003;74521;45.618;5.212;2024-02-23T06:09:53;0.75;0.00;0.00
84339;PMS7003;74521;45.618;5.212;2024-02-23T06:12:20;0.00;0.00;0.00
84339;PMS7003;74521;45.618;5.212;2024-02-23T06:14:47;0.00;0.00;0.00
84339;PMS7003;74521;45.618;5.212;2024-02-23T06:17:14;0.00;0.00;0.00
84339;PMS7003;74521;45.618;5.212;2024-02-23T06:19:40;0.50;0.00;0.00
84339;PMS7003;74521;45.618;5.212;2024-02-23T06:22:08;0.50;0.00;0.00
84339;PMS7003;74521;45.618;5.212;2024-02-23T06:24:37;1.00;0.00;0.00
84339;PMS7003;74521;45.618;5.212;2024-02-23T06:27:04;1.00;0.00;0.00
84339;PMS7003;74521;45.618;5.212;2024-02-23T06:29:30;0.00;0.00;0.00
84339;PMS7003;74521;45.618;5.212;2024-02-23T06:31:57;0.00;0.00;0.00
84339;PMS7003;74521;45.618;5.212;2024-02-23T06:34:26;0.00;0.00;0.00
84339;PMS7003;74521;45.618;5.212;2024-02-23T06:36:53;0.00;0.00;0.00
84339;PMS7003;74521;45.618;5.212;2024-02-23T06:39:21;0.00;0.00;0.00
84339;PMS7003;74521;45.618;5.212;2024-02-23T06:41:47;0.00;0.00;0.00
84339;PMS7003;74521;45.618;5.212;2024-02-23T06:44:14;0.00;0.00;0.00
84339;PMS7003;74521;45.618;5.212;2024-02-23T06:46:41;1.25;0.00;0.00
84339;PMS7003;74521;45.618;5.212;2024-02-23T06:49:09;0.50;0.00;0.00
84339;PMS7003;74521;45.618;5.212;2024-02-23T06:51:36;0.00;0.00;0.00
84339;PMS7003;74521;45.618;5.212;2024-02-23T06:54:03;0.00;0.00;0.00
84339;PMS7003;74521;45.618;5.212;2024-02-23T06:56:31;0.00;0.00;0.00
84339;PMS7003;74521;45.618;5.212;2024-02-23T06:58:59;1.75;0.00;0.00
84339;PMS7003;74521;45.618;5.212;2024-02-23T07:01:26;2.00;0.00;0.00
84339;PMS7003;74521;45.618;5.212;2024-02-23T07:03:52;0.00;0.00;0.00
84339;PMS7003;74521;45.618;5.212;2024-02-23T07:06:19;0.00;0.00;0.00
84339;PMS7003;74521;45.618;5.212;2024-02-23T07:08:46;2.00;0.00;0.00
84339;PMS7003;74521;45.618;5.212;2024-02-23T07:11:12;0.00;0.00;0.00
84339;PMS7003;74521;45.618;5.212;2024-02-23T07:13:42;0.00;0.00;0.00
84339;PMS7003;74521;45.618;5.212;2024-02-23T07:16:09;0.00;0.00;0.00
84339;PMS7003;74521;45.618;5.212;2024-02-23T07:18:35;1.00;0.00;0.00
84339;PMS7003;74521;45.618;5.212;2024-02-23T07:21:02;2.00;0.25;0.00
84339;PMS7003;74521;45.618;5.212;2024-02-23T07:23:29;0.00;0.00;0.00
84339;PMS7003;74521;45.618;5.212;2024-02-23T07:25:55;2.50;0.00;0.00
84339;PMS7003;74521;45.618;5.212;2024-02-23T07:28:22;0.00;0.00;0.00
84339;PMS7003;74521;45.618;5.212;2024-02-23T07:30:50;0.00;0.00;0.00
84339;PMS7003;74521;45.618;5.212;2024-02-23T07:33:17;2.00;0.25;0.00
84339;PMS7003;74521;45.618;5.212;2024-02-23T07:35:44;0.25;0.25;0.00
84339;PMS7003;74521;45.618;5.212;2024-02-23T07:38:11;0.50;0.00;0.00
84339;PMS7003;74521;45.618;5.212;2024-02-23T07:40:38;0.00;0.00;0.00
84339;PMS7003;74521;45.618;5.212;2024-02-23T07:43:05;2.50;0.00;0.00
84339;PMS7003;74521;45.618;5.212;2024-02-23T07:45:31;4.00;1.00;0.50
84339;PMS7003;74521;45.618;5.212;2024-02-23T07:48:00;1.00;1.00;0.00
84339;PMS7003;74521;45.618;5.212;2024-02-23T07:50:27;2.25;2.00;1.00
84339;PMS7003;74521;45.618;5.212;2024-02-23T07:52:54;1.50;1.50;1.00
84339;PMS7003;74521;45.618;5.212;2024-02-23T07:55:20;2.00;2.00;1.50
84339;PMS7003;74521;45.618;5.212;2024-02-23T07:57:47;1.75;0.00;0.00
84339;PMS7003;74521;45.618;5.212;2024-02-23T08:00:14;2.50;2.00;1.50
84339;PMS7003;74521;45.618;5.212;2024-02-23T08:02:41;1.00;1.00;1.00
84339;PMS7003;74521;45.618;5.212;2024-02-23T08:05:09;2.75;1.25;1.00
84339;PMS7003;74521;45.618;5.212;2024-02-23T08:07:36;1.25;1.25;1.00
84339;PMS7003;74521;45.618;5.212;2024-02-23T08:10:02;2.25;2.00;1.50
84339;PMS7003;74521;45.618;5.212;2024-02-23T08:12:30;2.75;2.00;1.00
84339;PMS7003;74521;45.618;5.212;2024-02-23T08:14:56;1.00;1.00;1.00
84339;PMS7003;74521;45.618;5.212;2024-02-23T08:17:23;1.00;1.00;1.00
84339;PMS7003;74521;45.618;5.212;2024-02-23T08:19:50;1.75;1.75;1.00
84339;PMS7003;74521;45.618;5.212;2024-02-23T08:22:18;1.00;1.00;1.00
84339;PMS7003;74521;45.618;5.212;2024-02-23T08:24:45;3.00;1.50;1.00
84339;PMS7003;74521;45.618;5.212;2024-02-23T08:27:12;2.00;2.00;2.00
84339;PMS7003;74521;45.618;5.212;2024-02-23T08:29:38;2.00;2.00;2.00
84339;PMS7003;74521;45.618;5.212;2024-02-23T08:32:06;1.00;1.00;0.25
84339;PMS7003;74521;45.618;5.212;2024-02-23T08:34:33;1.75;1.50;1.25
84339;PMS7003;74521;45.618;5.212;2024-02-23T08:37:00;2.00;2.00;1.50
84339;PMS7003;74521;45.618;5.212;2024-02-23T08:39:28;1.00;1.00;1.00
84339;PMS7003;74521;45.618;5.212;2024-02-23T08:41:55;1.75;1.75;1.25
84339;PMS7003;74521;45.618;5.212;2024-02-23T08:44:22;2.00;2.00;1.75
84339;PMS7003;74521;45.618;5.212;2024-02-23T08:46:48;3.00;1.00;1.00
84339;PMS7003;74521;45.618;5.212;2024-02-23T08:49:15;5.75;2.00;1.75
84339;PMS7003;74521;45.618;5.212;2024-02-23T08:51:42;2.75;2.00;1.00
84339;PMS7003;74521;45.618;5.212;2024-02-23T08:54:08;3.00;3.00;2.00
84339;PMS7003;74521;45.618;5.212;2024-02-23T08:56:38;3.25;3.25;2.25
84339;PMS7003;74521;45.618;5.212;2024-02-23T08:59:07;6.00;2.75;2.00
84339;PMS7003;74521;45.618;5.212;2024-02-23T09:01:34;5.00;5.00;4.00
84339;PMS7003;74521;45.618;5.212;2024-02-23T09:04:00;5.50;4.00;2.75
84339;PMS7003;74521;45.618;5.212;2024-02-23T09:06:27;6.75;3.25;3.00
84339;PMS7003;74521;45.618;5.212;2024-02-23T09:08:54;4.00;4.00;2.75
84339;PMS7003;74521;45.618;5.212;2024-02-23T09:11:22;3.00;3.00;3.00
84339;PMS7003;74521;45.618;5.212;2024-02-23T09:13:50;5.00;4.00;3.75
84339;PMS7003;74521;45.618;5.212;2024-02-23T09:16:16;4.75;4.00;3.00
84339;PMS7003;74521;45.618;5.212;2024-02-23T09:18:44;4.00;4.00;3.25
84339;PMS7003;74521;45.618;5.212;2024-02-23T09:21:10;5.25;5.25;4.00
84339;PMS7003;74521;45.618;5.212;2024-02-23T09:23:37;5.00;5.00;3.00
84339;PMS7003;74521;45.618;5.212;2024-02-23T09:26:08;6.50;4.75;4.00
84339;PMS7003;74521;45.618;5.212;2024-02-23T09:28:35;5.00;5.00;3.75
84339;PMS7003;74521;45.618;5.212;2024-02-23T09:31:04;5.75;4.00;3.00
84339;PMS7003;74521;45.618;5.212;2024-02-23T09:33:31;4.50;4.25;3.00
84339;PMS7003;74521;45.618;5.212;2024-02-23T09:35:58;4.00;4.00;3.25
84339;PMS7003;74521;45.618;5.212;2024-02-23T09:38:24;5.75;4.75;4.00
84339;PMS7003;74521;45.618;5.212;2024-02-23T09:40:51;4.25;4.00;3.25
84339;PMS7003;74521;45.618;5.212;2024-02-23T09:43:17;4.25;4.25;4.00
84339;PMS7003;74521;45.618;5.212;2024-02-23T09:45:46;6.50;5.50;4.75
84339;PMS7003;74521;45.618;5.212;2024-02-23T09:48:14;5.25;4.50;3.00
84339;PMS7003;74521;45.618;5.212;2024-02-23T09:50:43;5.25;5.00;3.75
84339;PMS7003;74521;45.618;5.212;2024-02-23T09:53:11;5.75;4.00;3.00
84339;PMS7003;74521;45.618;5.212;2024-02-23T09:55:39;6.50;5.50;3.00
84339;PMS7003;74521;45.618;5.212;2024-02-23T09:58:06;4.75;4.75;3.25
84339;PMS7003;74521;45.618;5.212;2024-02-23T10:00:35;5.50;3.00;2.00
84339;PMS7003;74521;45.618;5.212;2024-02-23T10:03:04;3.50;2.50;2.00
84339;PMS7003;74521;45.618;5.212;2024-02-23T10:05:33;7.50;4.00;3.75
84339;PMS7003;74521;45.618;5.212;2024-02-23T10:08:00;3.50;3.50;2.25
84339;PMS7003;74521;45.618;5.212;2024-02-23T10:10:29;5.75;4.00;3.50
84339;PMS7003;74521;45.618;5.212;2024-02-23T10:12:56;4.00;4.00;3.00
84339;PMS7003;74521;45.618;5.212;2024-02-23T10:15:23;4.00;2.25;1.75
84339;PMS7003;74521;45.618;5.212;2024-02-23T10:17:50;3.25;3.25;2.75
84339;PMS7003;74521;45.618;5.212;2024-02-23T10:20:19;3.00;3.00;2.75
84339;PMS7003;74521;45.618;5.212;2024-02-23T10:22:47;3.75;3.50;3.00
84339;PMS7003;74521;45.618;5.212;2024-02-23T10:25:13;2.75;2.75;1.75
84339;PMS7003;74521;45.618;5.212;2024-02-23T10:27:40;4.25;2.00;2.00
84339;PMS7003;74521;45.618;5.212;2024-02-23T10:30:08;2.00;2.00;2.00
84339;PMS7003;74521;45.618;5.212;2024-02-23T10:32:36;4.00;2.25;2.00
84339;PMS7003;74521;45.618;5.212;2024-02-23T10:35:04;4.25;3.00;2.00
84339;PMS7003;74521;45.618;5.212;2024-02-23T10:37:36;2.50;2.50;1.25
84339;PMS7003;74521;45.618;5.212;2024-02-23T10:40:04;3.25;2.75;1.75
84339;PMS7003;74521;45.618;5.212;2024-02-23T10:42:35;3.00;3.00;2.00
84339;PMS7003;74521;45.618;5.212;2024-02-23T10:45:05;2.25;2.00;2.00
84339;PMS7003;74521;45.618;5.212;2024-02-23T10:47:33;5.00;4.00;2.75
84339;PMS7003;74521;45.618;5.212;2024-02-23T10:50:01;1.75;1.75;1.00
84339;PMS7003;74521;45.618;5.212;2024-02-23T10:52:29;2.00;2.00;2.00
84339;PMS7003;74521;45.618;5.212;2024-02-23T10:54:58;1.75;1.75;1.00
84339;PMS7003;74521;45.618;5.212;2024-02-23T10:57:28;2.75;2.00;1.75
84339;PMS7003;74521;45.618;5.212;2024-02-23T10:59:55;2.00;2.00;2.00
84339;PMS7003;74521;45.618;5.212;2024-02-23T11:02:22;4.75;1.25;1.00
84339;PMS7003;74521;45.618;5.212;2024-02-23T11:04:53;1.25;1.25;1.00
84339;PMS7003;74521;45.618;5.212;2024-02-23T11:07:23;3.00;2.00;1.50
84339;PMS7003;74521;45.618;5.212;2024-02-23T11:09:53;5.50;1.00;1.00
84339;PMS7003;74521;45.618;5.212;2024-02-23T11:12:23;2.00;2.00;2.00
84339;PMS7003;74521;45.618;5.212;2024-02-23T11:14:56;3.00;1.00;1.00
84339;PMS7003;74521;45.618;5.212;2024-02-23T11:17:26;1.00;1.00;1.00
84339;PMS7003;74521;45.618;5.212;2024-02-23T11:19:53;1.00;1.00;1.00
84339;PMS7003;74521;45.618;5.212;2024-02-23T11:22:24;2.00;0.00;0.00
84339;PMS7003;74521;45.618;5.212;2024-02-23T11:24:52;0.00;0.00;0.00
84339;PMS7003;74521;45.618;5.212;2024-02-23T11:27:19;0.75;0.75;0.25
84339;PMS7003;74521;45.618;5.212;2024-02-23T11:29:46;2.00;2.00;1.00
84339;PMS7003;74521;45.618;5.212;2024-02-23T11:32:15;2.00;0.00;0.00
84339;PMS7003;74521;45.618;5.212;2024-02-23T11:34:53;1.75;1.25;1.00
84339;PMS7003;74521;45.618;5.212;2024-02-23T11:37:21;2.25;0.00;0.00
84339;PMS7003;74521;45.618;5.212;2024-02-23T11:39:48;0.25;0.25;0.25
84339;PMS7003;74521;45.618;5.212;2024-02-23T11:42:16;3.00;0.25;0.00
84339;PMS7003;74521;45.618;5.212;2024-02-23T11:44:43;0.75;0.75;0.00
84339;PMS7003;74521;45.618;5.212;2024-02-23T11:47:10;2.00;0.00;0.00
84339;PMS7003;74521;45.618;5.212;2024-02-23T11:49:38;1.25;0.00;0.00
84339;PMS7003;74521;45.618;5.212;2024-02-23T11:52:05;2.00;0.75;0.00
84339;PMS7003;74521;45.618;5.212;2024-02-23T11:54:32;0.50;0.50;0.50
84339;PMS7003;74521;45.618;5.212;2024-02-23T11:56:59;0.00;0.00;0.00
84339;PMS7003;74521;45.618;5.212;2024-02-23T11:59:26;0.50;0.50;0.50
84339;PMS7003;74521;45.618;5.212;2024-02-23T12:01:53;0.00;0.00;0.00
84339;PMS7003;74521;45.618;5.212;2024-02-23T12:04:19;0.00;0.00;0.00
84339;PMS7003;74521;45.618;5.212;2024-02-23T12:06:47;0.75;0.00;0.00
84339;PMS7003;74521;45.618;5.212;2024-02-23T12:09:15;0.00;0.00;0.00
84339;PMS7003;74521;45.618;5.212;2024-02-23T12:11:42;1.75;0.50;0.00
84339;PMS7003;74521;45.618;5.212;2024-02-23T12:14:09;0.50;0.50;0.00
84339;PMS7003;74521;45.618;5.212;2024-02-23T12:16:36;0.00;0.00;0.00
84339;PMS7003;74521;45.618;5.212;2024-02-23T12:19:03;0.25;0.00;0.00
84339;PMS7003;74521;45.618;5.212;2024-02-23T12:21:29;0.00;0.00;0.00
84339;PMS7003;74521;45.618;5.212;2024-02-23T12:23:57;0.00;0.00;0.00
84339;PMS7003;74521;45.618;5.212;2024-02-23T12:26:24;1.25;0.00;0.00
84339;PMS7003;74521;45.618;5.212;2024-02-23T12:28:51;0.00;0.00;0.00
84339;PMS7003;74521;45.618;5.212;2024-02-23T12:31:23;0.00;0.00;0.00
84339;PMS7003;74521;45.618;5.212;2024-02-23T12:33:50;0.00;0.00;0.00
84339;PMS7003;74521;45.618;5.212;2024-02-23T12:36:17;0.00;0.00;0.00
84339;PMS7003;74521;45.618;5.212;2024-02-23T12:38:43;0.00;0.00;0.00
84339;PMS7003;74521;45.618;5.212;2024-02-23T12:41:11;1.00;0.00;0.00
84339;PMS7003;74521;45.618;5.212;2024-02-23T12:43:38;0.00;0.00;0.00
84339;PMS7003;74521;45.618;5.212;2024-02-23T12:46:05;0.00;0.00;0.00
84339;PMS7003;74521;45.618;5.212;2024-02-23T12:48:33;0.00;0.00;0.00
84339;PMS7003;74521;45.618;5.212;2024-02-23T12:51:00;0.00;0.00;0.00
84339;PMS7003;74521;45.618;5.212;2024-02-23T12:53:30;0.00;0.00;0.00
84339;PMS7003;74521;45.618;5.212;2024-02-23T12:55:59;0.00;0.00;0.00
84339;PMS7003;74521;45.618;5.212;2024-02-23T12:58:28;0.00;0.00;0.00
84339;PMS7003;74521;45.618;5.212;2024-02-23T13:00:55;1.50;0.00;0.00
84339;PMS7003;74521;45.618;5.212;2024-02-23T13:03:22;0.00;0.00;0.00
84339;PMS7003;74521;45.618;5.212;2024-02-23T13:05:50;1.00;0.00;0.00
84339;PMS7003;74521;45.618;5.212;2024-02-23T13:08:16;0.00;0.00;0.00
84339;PMS7003;74521;45.618;5.212;2024-02-23T13:10:43;0.00;0.00;0.00
84339;PMS7003;74521;45.618;5.212;2024-02-23T13:13:10;0.00;0.00;0.00
84339;PMS7003;74521;45.618;5.212;2024-02-23T13:15:39;0.00;0.00;0.00
84339;PMS7003;74521;45.618;5.212;2024-02-23T13:18:06;0.00;0.00;0.00
84339;PMS7003;74521;45.618;5.212;2024-02-23T13:20:32;0.00;0.00;0.00
84339;PMS7003;74521;45.618;5.212;2024-02-23T13:22:59;0.00;0.00;0.00
84339;PMS7003;74521;45.618;5.212;2024-02-23T13:25:26;0.00;0.00;0.00
84339;PMS7003;74521;45.618;5.212;2024-02-23T13:27:53;0.25;0.00;0.00
84339;PMS7003;74521;45.618;5.212;2024-02-23T13:30:19;0.00;0.00;0.00
84339;PMS7003;74521;45.618;5.212;2024-02-23T13:32:47;0.00;0.00;0.00
84339;PMS7003;74521;45.618;5.212;2024-02-23T13:35:26;1.00;0.00;0.00
84339;PMS7003;74521;45.618;5.212;2024-02-23T13:37:53;0.00;0.00;0.00
84339;PMS7003;74521;45.618;5.212;2024-02-23T13:40:20;0.00;0.00;0.00
84339;PMS7003;74521;45.618;5.212;2024-02-23T13:42:47;0.00;0.00;0.00
84339;PMS7003;74521;45.618;5.212;2024-02-23T13:45:15;0.00;0.00;0.00
84339;PMS7003;74521;45.618;5.212;2024-02-23T13:47:42;1.50;0.00;0.00
84339;PMS7003;74521;45.618;5.212;2024-02-23T13:50:12;0.00;0.00;0.00
84339;PMS7003;74521;45.618;5.212;2024-02-23T13:52:39;0.00;0.00;0.00
84339;PMS7003;74521;45.618;5.212;2024-02-23T13:55:05;0.50;0.00;0.00
84339;PMS7003;74521;45.618;5.212;2024-02-23T13:57:32;0.00;0.00;0.00
84339;PMS7003;74521;45.618;5.212;2024-02-23T13:59:59;0.00;0.00;0.00
84339;PMS7003;74521;45.618;5.212;2024-02-23T14:02:26;0.25;0.00;0.00
84339;PMS7003;74521;45.618;5.212;2024-02-23T14:04:55;1.00;0.00;0.00
84339;PMS7003;74521;45.618;5.212;2024-02-23T14:07:30;0.00;0.00;0.00
84339;PMS7003;74521;45.618;5.212;2024-02-23T14:09:56;0.25;0.00;0.00
84339;PMS7003;74521;45.618;5.212;2024-02-23T14:12:23;0.00;0.00;0.00
84339;PMS7003;74521;45.618;5.212;2024-02-23T14:14:50;0.00;0.00;0.00
84339;PMS7003;74521;45.618;5.212;2024-02-23T14:17:16;1.00;0.00;0.00
84339;PMS7003;74521;45.618;5.212;2024-02-23T14:19:43;0.00;0.00;0.00
84339;PMS7003;74521;45.618;5.212;2024-02-23T14:22:11;0.00;0.00;0.00
84339;PMS7003;74521;45.618;5.212;2024-02-23T14:24:39;0.00;0.00;0.00